createdAt,value
2018-08-09T00:01:07.359Z,9.97
2018-08-09T00:03:35.849Z,9.90
2018-08-09T00:06:04.328Z,10.87
2018-08-09T00:08:32.817Z,8.77
2018-08-09T00:11:01.311Z,10.13
2018-08-09T00:13:30.859Z,9.23
2018-08-09T00:15:59.387Z,9.57
2018-08-09T00:18:28.052Z,9.07
2018-08-09T00:20:58.407Z,9.57
2018-08-09T00:23:26.873Z,11.07
2018-08-09T00:25:55.528Z,10.40
2018-08-09T00:28:24.207Z,10.00
2018-08-09T00:30:52.693Z,9.47
2018-08-09T00:33:22.235Z,9.70
2018-08-09T00:35:51.688Z,8.80
2018-08-09T00:38:20.755Z,10.33
2018-08-09T00:40:49.915Z,10.63
2018-08-09T00:43:18.414Z,10.87
2018-08-09T00:45:46.895Z,11.13
2018-08-09T00:48:15.366Z,11.57
2018-08-09T00:50:44.616Z,10.47
2018-08-09T00:53:13.120Z,11.17
2018-08-09T00:55:41.564Z,10.30
2018-08-09T00:58:10.084Z,10.83
2018-08-09T01:00:38.623Z,11.43
2018-08-09T01:03:07.257Z,12.03
2018-08-09T01:05:35.715Z,10.70
2018-08-09T01:08:05.094Z,10.90
2018-08-09T01:10:34.009Z,11.30
2018-08-09T01:13:04.118Z,10.10
2018-08-09T01:15:32.620Z,10.47
2018-08-09T01:18:01.076Z,10.53
2018-08-09T01:20:29.657Z,10.07
2018-08-09T01:22:58.281Z,10.20
2018-08-09T01:25:26.730Z,11.13
2018-08-09T01:27:55.198Z,11.53
2018-08-09T01:30:23.727Z,10.20
2018-08-09T01:32:52.238Z,9.93
2018-08-09T01:35:20.765Z,11.17
2018-08-09T01:37:49.235Z,10.43
2018-08-09T01:40:18.387Z,11.33
2018-08-09T01:42:58.148Z,11.13
2018-08-09T01:45:26.880Z,10.70
2018-08-09T01:47:56.159Z,10.70
2018-08-09T01:50:24.596Z,10.40
2018-08-09T01:52:53.960Z,11.80
2018-08-09T01:55:23.016Z,10.20
2018-08-09T01:57:51.469Z,10.97
2018-08-09T02:00:19.920Z,9.93
2018-08-09T02:02:48.527Z,10.30
2018-08-09T02:05:17.069Z,9.23
2018-08-09T02:07:47.116Z,10.80
2018-08-09T02:10:15.808Z,10.13
2018-08-09T02:12:44.315Z,10.70
2018-08-09T02:15:13.839Z,9.23
2018-08-09T02:17:42.634Z,10.50
2018-08-09T02:20:11.164Z,9.70
2018-08-09T02:22:40.324Z,10.67
2018-08-09T02:25:08.800Z,9.83
2018-08-09T02:27:37.259Z,11.07
2018-08-09T02:30:06.185Z,10.43
2018-08-09T02:32:34.635Z,9.93
2018-08-09T02:35:03.289Z,9.70
2018-08-09T02:37:32.019Z,10.17
2018-08-09T02:40:00.861Z,10.27
2018-08-09T02:42:29.600Z,9.67
2018-08-09T02:44:58.115Z,10.00
2018-08-09T02:47:27.338Z,8.83
2018-08-09T02:49:55.859Z,9.63
2018-08-09T02:52:24.763Z,10.03
2018-08-09T02:54:53.298Z,11.20
2018-08-09T02:57:22.134Z,10.20
2018-08-09T02:59:51.447Z,9.97
2018-08-09T03:02:19.872Z,10.03
2018-08-09T03:04:48.408Z,9.80
2018-08-09T03:07:17.848Z,9.33
2018-08-09T03:09:46.387Z,9.57
2018-08-09T03:12:14.856Z,8.87
2018-08-09T03:14:43.619Z,9.90
2018-08-09T03:17:12.114Z,9.13
2018-08-09T03:19:40.659Z,9.90
2018-08-09T03:22:09.945Z,10.40
2018-08-09T03:24:38.421Z,10.20
2018-08-09T03:27:07.658Z,9.30
2018-08-09T03:29:37.074Z,9.40
2018-08-09T03:32:05.712Z,10.10
2018-08-09T03:34:34.745Z,10.67
2018-08-09T03:37:03.924Z,10.77
2018-08-09T03:39:33.482Z,11.07
2018-08-09T03:42:02.299Z,11.03
2018-08-09T03:44:30.775Z,10.07
2018-08-09T03:47:00.361Z,10.63
2018-08-09T03:49:28.855Z,11.30
2018-08-09T03:51:57.373Z,10.53
2018-08-09T03:54:25.920Z,10.23
2018-08-09T03:56:54.592Z,12.17
2018-08-09T03:59:23.331Z,10.87
2018-08-09T04:01:52.619Z,11.00
2018-08-09T04:04:21.748Z,10.23
2018-08-09T04:06:50.720Z,10.63
2018-08-09T04:09:20.925Z,11.43
2018-08-09T04:11:50.960Z,10.57
2018-08-09T04:14:19.697Z,10.43
2018-08-09T04:16:49.704Z,10.43
2018-08-09T04:19:19.174Z,11.53
2018-08-09T04:21:47.974Z,12.03
2018-08-09T04:24:17.620Z,12.10
2018-08-09T04:26:46.581Z,12.50
2018-08-09T04:29:16.696Z,12.10
2018-08-09T04:31:46.325Z,12.93
2018-08-09T04:34:16.987Z,12.30
2018-08-09T04:36:46.578Z,11.80
2018-08-09T04:39:16.322Z,11.57
2018-08-09T04:41:45.091Z,11.77
2018-08-09T04:44:14.155Z,12.30
2018-08-09T04:46:45.169Z,11.43
2018-08-09T04:49:13.917Z,11.47
2018-08-09T04:51:42.581Z,10.73
2018-08-09T04:54:12.340Z,11.20
2018-08-09T04:56:40.948Z,10.87
2018-08-09T04:59:09.918Z,11.60
2018-08-09T05:01:38.727Z,11.20
2018-08-09T05:04:07.277Z,10.40
2018-08-09T05:06:35.800Z,11.23
2018-08-09T05:09:06.293Z,10.67
2018-08-09T05:11:36.676Z,10.20
2018-08-09T05:14:05.294Z,9.37
2018-08-09T05:16:33.964Z,10.43
2018-08-09T05:19:03.562Z,9.90
2018-08-09T05:21:32.376Z,10.57
2018-08-09T05:24:02.331Z,10.07
2018-08-09T05:26:31.621Z,10.43
2018-08-09T05:29:00.094Z,11.03
2018-08-09T05:31:29.408Z,11.13
2018-08-09T05:33:58.253Z,11.20
2018-08-09T05:36:26.887Z,11.13
2018-08-09T05:38:55.431Z,10.90
2018-08-09T05:41:24.037Z,10.47
2018-08-09T05:43:53.094Z,11.00
2018-08-09T05:46:21.844Z,10.50
2018-08-09T05:48:50.645Z,11.47
2018-08-09T05:51:19.300Z,11.17
2018-08-09T05:53:47.838Z,10.83
2018-08-09T05:56:17.063Z,10.93
2018-08-09T05:58:46.701Z,10.30
2018-08-09T06:01:16.252Z,10.53
2018-08-09T06:03:45.635Z,12.57
2018-08-09T06:06:15.093Z,11.83
2018-08-09T06:08:43.706Z,11.73
2018-08-09T06:11:12.522Z,11.00
2018-08-09T06:13:41.838Z,11.70
2018-08-09T06:16:10.694Z,11.80
2018-08-09T06:18:39.225Z,11.50
2018-08-09T06:21:09.471Z,11.23
2018-08-09T06:23:37.999Z,11.40
2018-08-09T06:26:07.759Z,11.07
2018-08-09T06:28:36.818Z,9.80
2018-08-09T06:31:05.376Z,11.57
2018-08-09T06:33:34.537Z,10.90
2018-08-09T06:36:03.041Z,10.53
2018-08-09T06:38:31.566Z,10.63
2018-08-09T06:41:00.832Z,11.73
2018-08-09T06:43:29.356Z,10.67
2018-08-09T06:45:57.914Z,10.90
2018-08-09T06:48:26.470Z,11.07
2018-08-09T06:50:56.387Z,10.67
2018-08-09T06:53:26.015Z,10.00
2018-08-09T06:55:54.543Z,10.97
2018-08-09T06:58:23.137Z,10.63
2018-08-09T07:00:51.593Z,10.17
2018-08-09T07:03:20.098Z,11.00
2018-08-09T07:05:48.581Z,11.60
2018-08-09T07:08:17.071Z,11.23
2018-08-09T07:10:45.612Z,10.67
2018-08-09T07:13:14.113Z,9.77
2018-08-09T07:15:42.562Z,10.77
2018-08-09T07:18:11.078Z,10.80
2018-08-09T07:20:39.518Z,10.57
2018-08-09T07:23:09.927Z,9.83
2018-08-09T07:25:42.770Z,10.57
2018-08-09T07:28:11.873Z,10.60
2018-08-09T07:30:40.310Z,9.73
2018-08-09T07:33:08.788Z,9.30
2018-08-09T07:35:37.275Z,9.90
2018-08-09T07:38:05.916Z,10.37
2018-08-09T07:40:34.387Z,8.53
2018-08-09T07:43:03.147Z,8.10
2018-08-09T07:45:31.606Z,6.40
2018-08-09T07:48:00.648Z,6.90
2018-08-09T07:50:29.868Z,6.43
2018-08-09T07:52:58.668Z,7.17
2018-08-09T07:55:27.763Z,7.10
2018-08-09T07:57:57.327Z,6.60
2018-08-09T08:00:25.923Z,6.53
2018-08-09T08:02:55.186Z,6.70
2018-08-09T08:05:24.439Z,6.50
2018-08-09T08:07:53.077Z,6.83
2018-08-09T08:10:21.596Z,7.00
2018-08-09T08:12:50.273Z,12.17
2018-08-09T08:15:19.000Z,21.07
2018-08-09T08:17:48.261Z,8.30
2018-08-09T08:20:17.078Z,7.30
2018-08-09T08:22:46.404Z,7.90
2018-08-09T08:25:16.255Z,7.15
2018-08-09T08:27:45.239Z,7.62
2018-08-09T08:30:15.408Z,7.00
2018-08-09T08:32:44.860Z,6.30
2018-08-09T08:35:13.770Z,6.92
2018-08-09T08:37:43.026Z,7.10
2018-08-09T08:40:11.913Z,6.53
2018-08-09T08:42:40.746Z,6.78
2018-08-09T08:45:13.242Z,7.20
2018-08-09T08:47:42.602Z,6.28
2018-08-09T08:50:12.284Z,6.83
2018-08-09T08:52:40.805Z,6.62
2018-08-09T08:55:12.519Z,6.75
2018-08-09T08:57:41.831Z,6.95
2018-08-09T09:00:12.709Z,6.72
2018-08-09T09:02:43.199Z,6.50
2018-08-09T09:05:15.610Z,6.60
2018-08-09T09:07:45.075Z,6.30
2018-08-09T09:10:15.292Z,6.28
2018-08-09T09:12:44.251Z,5.92
2018-08-09T09:15:15.182Z,5.58
2018-08-09T09:17:44.412Z,5.47
2018-08-09T09:20:15.535Z,5.47
2018-08-09T09:22:45.010Z,5.42
2018-08-09T09:25:14.741Z,5.60
2018-08-09T09:27:43.444Z,5.85
2018-08-09T09:30:13.671Z,5.60
2018-08-09T09:32:42.556Z,5.50
2018-08-09T09:35:11.169Z,5.83
2018-08-09T09:37:41.292Z,5.50
2018-08-09T09:40:10.923Z,5.78
2018-08-09T09:42:41.129Z,5.30
2018-08-09T09:45:10.769Z,5.33
2018-08-09T09:47:39.678Z,5.53
2018-08-09T09:50:10.672Z,5.67
2018-08-09T09:52:42.161Z,5.70
2018-08-09T09:55:12.119Z,5.60
2018-08-09T09:57:40.961Z,5.28
2018-08-09T10:00:18.228Z,5.55
2018-08-09T10:02:48.064Z,5.50
2018-08-09T10:05:17.965Z,6.00
2018-08-09T10:07:47.114Z,5.67
2018-08-09T10:10:17.000Z,5.95
2018-08-09T10:12:47.005Z,5.42
2018-08-09T10:15:15.840Z,5.90
2018-08-09T10:17:47.925Z,5.72
2018-08-09T10:20:16.893Z,5.55
2018-08-09T10:22:46.222Z,5.53
2018-08-09T10:25:15.514Z,5.50
2018-08-09T10:27:44.078Z,5.40
2018-08-09T10:30:12.808Z,6.20
2018-08-09T10:32:42.155Z,6.20
2018-08-09T10:35:11.763Z,6.12
2018-08-09T10:37:40.912Z,6.00
2018-08-09T10:40:10.261Z,5.37
2018-08-09T10:42:39.621Z,6.20
2018-08-09T10:45:08.799Z,6.12
2018-08-09T10:47:39.029Z,5.58
2018-08-09T10:50:09.163Z,6.35
2018-08-09T10:52:38.689Z,5.80
2018-08-09T10:55:08.108Z,6.05
2018-08-09T10:57:38.197Z,6.42
2018-08-09T11:00:09.170Z,6.10
2018-08-09T11:02:38.627Z,6.40
2018-08-09T11:05:09.843Z,6.15
2018-08-09T11:07:39.111Z,5.87
2018-08-09T11:10:08.863Z,5.80
2018-08-09T11:12:37.768Z,6.58
2018-08-09T11:15:09.312Z,6.12
2018-08-09T11:17:38.143Z,6.10
2018-08-09T11:20:07.004Z,5.87
2018-08-09T11:22:36.124Z,6.05
2018-08-09T11:25:06.132Z,5.90
2018-08-09T11:27:35.303Z,5.90
2018-08-09T11:30:04.570Z,6.28
2018-08-09T11:32:33.946Z,5.90
2018-08-09T11:35:03.625Z,6.78
2018-08-09T11:37:36.024Z,6.25
2018-08-09T11:40:05.486Z,6.78
2018-08-09T11:42:34.706Z,5.93
2018-08-09T11:45:05.426Z,6.63
2018-08-09T11:47:36.304Z,6.23
2018-08-09T11:50:05.009Z,5.00
2018-08-09T11:52:33.602Z,4.35
2018-08-09T11:55:02.068Z,3.90
2018-08-09T11:57:30.566Z,4.93
2018-08-09T11:59:59.350Z,5.43
2018-08-09T12:02:27.883Z,4.93
2018-08-09T12:04:56.797Z,5.40
2018-08-09T12:07:25.320Z,5.90
2018-08-09T12:09:53.833Z,5.63
2018-08-09T12:12:22.409Z,6.53
2018-08-09T12:14:51.520Z,6.63
2018-08-09T12:17:20.224Z,6.73
2018-08-09T12:19:48.997Z,6.13
2018-08-09T12:22:17.495Z,5.57
2018-08-09T12:24:47.010Z,7.57
2018-08-09T12:27:15.621Z,5.90
2018-08-09T12:29:44.105Z,12.67
2018-08-09T12:32:13.414Z,12.57
2018-08-09T12:34:42.204Z,5.53
2018-08-09T12:37:10.884Z,5.47
2018-08-09T12:39:39.433Z,4.60
2018-08-09T12:42:07.967Z,5.37
2018-08-09T12:44:39.062Z,4.93
2018-08-09T12:47:07.643Z,4.73
2018-08-09T12:49:36.345Z,4.03
2018-08-09T12:52:05.569Z,3.60
2018-08-09T12:54:34.770Z,3.80
2018-08-09T12:57:03.689Z,3.80
2018-08-09T12:59:32.458Z,3.73
2018-08-09T13:02:02.275Z,3.37
2018-08-09T13:04:31.291Z,3.37
2018-08-09T13:07:01.286Z,3.57
2018-08-09T13:09:31.126Z,3.20
2018-08-09T13:12:01.334Z,3.40
2018-08-09T13:14:30.562Z,3.60
2018-08-09T13:17:00.912Z,3.50
2018-08-09T13:19:30.959Z,3.50
2018-08-09T13:22:00.687Z,3.63
2018-08-09T13:24:29.883Z,3.07
2018-08-09T13:26:59.542Z,3.20
2018-08-09T13:29:28.341Z,2.67
2018-08-09T13:31:57.485Z,2.83
2018-08-09T13:34:26.232Z,2.90
2018-08-09T13:36:56.094Z,2.43
2018-08-09T13:39:24.738Z,3.90
2018-08-09T13:41:53.203Z,5.00
2018-08-09T13:44:22.201Z,8.40
2018-08-09T13:46:51.470Z,2.57
2018-08-09T13:49:21.564Z,2.53
2018-08-09T13:51:52.186Z,2.97
2018-08-09T13:54:22.135Z,2.40
2018-08-09T13:56:51.793Z,2.73
2018-08-09T13:59:20.430Z,2.70
2018-08-09T14:01:50.014Z,2.30
2018-08-09T14:04:18.824Z,2.53
2018-08-09T14:06:47.463Z,2.57
2018-08-09T14:09:16.601Z,2.90
2018-08-09T14:11:45.837Z,2.30
2018-08-09T14:14:14.353Z,2.27
2018-08-09T14:16:43.752Z,2.57
2018-08-09T14:19:12.322Z,2.47
2018-08-09T14:21:40.887Z,2.57
2018-08-09T14:24:10.554Z,2.60
2018-08-09T14:26:40.035Z,2.30
2018-08-09T14:29:09.642Z,2.43
2018-08-09T14:31:39.023Z,3.93
2018-08-09T14:34:07.791Z,2.57
2018-08-09T14:36:36.553Z,2.40
2018-08-09T14:39:08.581Z,32.53
2018-08-09T14:41:37.071Z,9.90
2018-08-09T14:44:06.230Z,2.60
2018-08-09T14:46:36.112Z,2.53
2018-08-09T14:49:04.867Z,2.40
2018-08-09T14:51:34.373Z,2.03
2018-08-09T14:54:03.167Z,2.30
2018-08-09T14:56:31.777Z,13.13
2018-08-09T14:59:01.582Z,2.30
2018-08-09T15:01:30.157Z,2.03
2018-08-09T15:03:58.918Z,2.60
2018-08-09T15:06:27.814Z,2.63
2018-08-09T15:08:56.899Z,2.43
2018-08-09T15:11:27.747Z,2.13
2018-08-09T15:13:57.299Z,2.43
2018-08-09T15:16:26.946Z,2.13
2018-08-09T15:18:55.871Z,2.00
2018-08-09T15:21:24.704Z,2.10
2018-08-09T15:23:53.475Z,2.17
2018-08-09T15:26:22.036Z,3.97
2018-08-09T15:28:50.739Z,2.10
2018-08-09T15:31:20.680Z,1.90
2018-08-09T15:33:49.309Z,2.83
2018-08-09T15:36:18.366Z,2.10
2018-08-09T15:38:47.549Z,2.30
2018-08-09T15:41:16.467Z,1.97
2018-08-09T15:43:45.602Z,1.97
2018-08-09T15:46:14.207Z,2.30
2018-08-09T15:48:42.740Z,2.00
2018-08-09T15:51:11.244Z,1.80
2018-08-09T15:53:39.847Z,1.70
2018-08-09T15:56:08.420Z,1.80
2018-08-09T15:58:37.053Z,2.30
2018-08-09T16:01:06.089Z,1.70
2018-08-09T16:03:34.607Z,2.10
2018-08-09T16:06:03.147Z,2.10
2018-08-09T16:08:31.789Z,2.07
2018-08-09T16:11:00.551Z,4.87
2018-08-09T16:13:29.282Z,21.67
2018-08-09T16:15:57.787Z,4.30
2018-08-09T16:18:26.482Z,2.10
2018-08-09T16:20:55.001Z,2.07
2018-08-09T16:23:23.509Z,2.20
2018-08-09T16:25:52.019Z,2.37
2018-08-09T16:28:20.627Z,2.10
2018-08-09T16:30:49.855Z,2.20
2018-08-09T16:33:18.284Z,2.33
2018-08-09T16:35:46.846Z,1.87
2018-08-09T16:38:15.531Z,1.87
2018-08-09T16:40:44.719Z,6.20
2018-08-09T16:43:13.345Z,4.30
2018-08-09T16:45:41.829Z,2.10
2018-08-09T16:48:10.549Z,1.83
2018-08-09T16:50:40.444Z,1.90
2018-08-09T16:53:09.586Z,2.00
2018-08-09T16:55:38.730Z,1.97
2018-08-09T16:58:07.353Z,1.70
2018-08-09T17:00:36.136Z,1.60
2018-08-09T17:03:06.675Z,1.57
2018-08-09T17:05:35.289Z,1.70
2018-08-09T17:08:03.800Z,1.73
2018-08-09T17:10:32.960Z,1.70
2018-08-09T17:13:02.020Z,1.90
2018-08-09T17:15:30.692Z,1.80
2018-08-09T17:17:59.636Z,1.70
2018-08-09T17:20:31.150Z,1.60
2018-08-09T17:23:00.602Z,1.50
2018-08-09T17:25:29.198Z,1.80
2018-08-09T17:27:57.880Z,2.00
2018-08-09T17:30:28.390Z,1.70
2018-08-09T17:32:58.461Z,1.63
2018-08-09T17:35:27.023Z,2.00
2018-08-09T17:37:55.683Z,1.60
2018-08-09T17:40:26.598Z,1.70
2018-08-09T17:42:55.964Z,2.10
2018-08-09T17:45:26.156Z,1.70
2018-08-09T17:47:55.466Z,1.90
2018-08-09T17:50:23.931Z,1.40
2018-08-09T17:52:52.600Z,1.53
2018-08-09T17:55:21.513Z,2.17
2018-08-09T17:57:50.092Z,3.77
2018-08-09T18:00:22.252Z,3.17
2018-08-09T18:02:52.262Z,12.20
2018-08-09T18:05:21.975Z,1.70
2018-08-09T18:07:50.846Z,2.20
2018-08-09T18:10:22.698Z,1.60
2018-08-09T18:12:51.703Z,1.50
2018-08-09T18:20:41.432Z,16.57
2018-08-09T18:23:11.798Z,2.00
2018-08-09T18:25:41.533Z,1.93
2018-08-09T18:28:10.881Z,1.83
2018-08-09T18:30:39.587Z,1.77
2018-08-09T18:33:08.188Z,1.57
2018-08-09T18:35:38.022Z,1.30
2018-08-09T18:38:07.757Z,1.27
2018-08-09T18:40:36.446Z,1.10
2018-08-09T18:43:05.483Z,1.10
2018-08-09T18:45:35.173Z,1.13
2018-08-09T18:48:04.613Z,2.13
2018-08-09T18:50:33.425Z,2.10
2018-08-09T18:53:02.952Z,1.13
2018-08-09T18:55:31.997Z,1.20
2018-08-09T18:58:01.986Z,1.20
2018-08-09T19:00:31.286Z,1.13
2018-08-09T19:03:01.110Z,1.10
2018-08-09T19:05:30.535Z,1.10
2018-08-09T19:08:00.381Z,5.53
2018-08-09T19:10:30.909Z,2.13
2018-08-09T19:13:00.527Z,2.13
2018-08-09T19:15:29.305Z,1.23
2018-08-09T19:17:58.201Z,1.23
2018-08-09T19:20:33.786Z,1.13
2018-08-09T19:23:02.887Z,1.30
2018-08-09T19:25:31.343Z,1.20
2018-08-09T19:28:01.380Z,1.00
2018-08-09T19:30:31.526Z,1.00
2018-08-09T19:33:00.667Z,1.37
2018-08-09T19:35:30.465Z,0.90
2018-08-09T19:38:02.122Z,1.27
2018-08-09T19:40:35.584Z,1.00
2018-08-09T19:43:05.721Z,1.00
2018-08-09T19:45:35.758Z,1.00
2018-08-09T19:48:07.890Z,1.00
2018-08-09T19:50:38.738Z,1.00
2018-08-09T19:53:07.762Z,0.90
2018-08-09T19:55:37.261Z,1.10
2018-08-09T19:58:07.760Z,0.90
2018-08-09T20:00:37.404Z,1.00
2018-08-09T20:03:07.347Z,3.17
2018-08-09T20:05:36.618Z,3.03
2018-08-09T20:08:05.899Z,1.10
2018-08-09T20:10:36.223Z,0.90
2018-08-09T20:13:06.777Z,0.70
2018-08-09T20:15:38.383Z,1.10
2018-08-09T20:18:09.336Z,1.00
2018-08-09T20:20:40.187Z,1.10
2018-08-09T20:23:12.050Z,0.93
2018-08-09T20:25:41.543Z,1.00
2018-08-09T20:28:11.733Z,1.00
2018-08-09T20:30:42.140Z,0.90
2018-08-09T20:33:10.892Z,1.10
2018-08-09T20:35:39.705Z,0.83
2018-08-09T20:38:08.874Z,1.23
2018-08-09T20:40:38.808Z,1.23
2018-08-09T20:43:07.253Z,0.90
2018-08-09T20:45:36.229Z,1.00
2018-08-09T20:48:04.716Z,1.00
2018-08-09T20:50:34.093Z,1.10
2018-08-09T20:53:03.030Z,1.03
2018-08-09T20:55:32.106Z,1.13
2018-08-09T20:58:00.556Z,1.00
2018-08-09T21:00:32.179Z,1.30
2018-08-09T21:03:02.137Z,1.00
2018-08-09T21:05:34.029Z,1.07
2018-08-09T21:08:03.741Z,0.93
2018-08-09T21:10:32.370Z,1.00
2018-08-09T21:13:00.889Z,0.90
2018-08-09T21:15:30.197Z,1.00
2018-08-09T21:17:58.824Z,1.60
2018-08-09T21:20:27.322Z,1.10
2018-08-09T21:22:56.607Z,1.30
2018-08-09T21:25:25.393Z,1.23
2018-08-09T21:27:53.907Z,1.13
2018-08-09T21:30:23.604Z,1.00
2018-08-09T21:32:52.701Z,1.23
2018-08-09T21:35:21.557Z,1.40
2018-08-09T21:37:50.216Z,1.80
2018-08-09T21:40:18.756Z,4.27
2018-08-09T21:42:47.569Z,1.57
2018-08-09T21:45:19.940Z,1.20
2018-08-09T21:47:50.072Z,1.00
2018-08-09T21:50:22.096Z,1.23
2018-08-09T21:52:50.640Z,0.90
2018-08-09T21:55:20.413Z,1.00
2018-08-09T21:57:49.590Z,1.10
2018-08-09T22:00:32.621Z,0.80
2018-08-09T22:03:02.950Z,1.00
2018-08-09T22:05:37.386Z,0.90
2018-08-09T22:08:12.395Z,0.70
2018-08-09T22:10:46.866Z,1.00
2018-08-09T22:13:21.038Z,1.00
2018-08-09T22:15:55.074Z,1.10
2018-08-09T22:18:36.784Z,0.80
2018-08-09T22:21:11.155Z,0.97
2018-08-09T22:23:42.000Z,0.90
2018-08-09T22:26:11.836Z,0.90
2018-08-09T22:28:43.103Z,0.73
2018-08-09T22:31:12.537Z,0.60
2018-08-09T22:33:41.676Z,0.50
2018-08-09T22:36:11.555Z,0.50
2018-08-09T22:38:40.523Z,0.87
2018-08-09T22:41:10.009Z,0.50
2018-08-09T22:43:40.146Z,0.60
2018-08-09T22:46:09.479Z,0.57
2018-08-09T22:48:40.014Z,0.60
2018-08-09T22:51:11.047Z,0.50
2018-08-09T22:53:41.007Z,0.40
2018-08-09T22:56:10.021Z,0.40
2018-08-09T22:58:40.721Z,0.57
2018-08-09T23:01:09.509Z,0.50
2018-08-09T23:03:39.047Z,0.57
2018-08-09T23:06:08.734Z,0.60
2018-08-09T23:08:37.822Z,0.40
2018-08-09T23:11:08.002Z,0.80
2018-08-09T23:13:37.268Z,0.53
2018-08-09T23:16:06.909Z,0.70
2018-08-09T23:18:35.819Z,0.60
2018-08-09T23:21:04.331Z,0.60
2018-08-09T23:23:32.927Z,0.40
2018-08-09T23:26:01.694Z,0.40
2018-08-09T23:28:30.964Z,0.47
2018-08-09T23:30:59.504Z,0.30
2018-08-09T23:33:28.300Z,0.50
2018-08-09T23:35:57.481Z,0.50
2018-08-09T23:38:26.424Z,0.50
2018-08-09T23:40:55.967Z,0.50
2018-08-09T23:43:24.427Z,0.40
2018-08-09T23:45:52.882Z,0.50
2018-08-09T23:48:21.312Z,0.50
2018-08-09T23:50:49.773Z,0.60
2018-08-09T23:53:18.303Z,0.50
2018-08-09T23:55:47.660Z,0.40
2018-08-09T23:58:16.624Z,0.50
